Time;durP1;ratioP1;P1;durP2;ratioP2;P2;SDS_P1;SDS_P2;PMS_P1;PMS_P2;Temp;Humidity;BMP_temperature;BMP_pressure;BME280_temperature;BME280_humidity;BME280_pressure;Samples;Min_cycle;Max_cycle;Signal;HPM_P1;HPM_P2
2022/03/16 00:01:27;;;;;;;38.25;22.20;;;;;;;;;;5135459;27;20034;-47
2022/03/16 00:03:53;;;;;;;37.10;21.63;;;;;;;;;;5135779;27;20027;-47
2022/03/16 00:06:19;;;;;;;38.92;18.95;;;;;;;;;;5135467;27;20103;-47
2022/03/16 00:08:47;;;;;;;53.22;24.35;;;;;;;;;;5135321;27;20082;-47
2022/03/16 00:11:13;;;;;;;70.53;23.50;;;;;;;;;;5135510;27;20025;-48
2022/03/16 00:13:39;;;;;;;42.40;19.60;;;;;;;;;;5135064;27;20019;-45
2022/03/16 00:16:06;;;;;;;53.25;20.20;;;;;;;;;;5112896;27;20038;-45
2022/03/16 00:18:34;;;;;;;38.72;18.00;;;;;;;;;;5114377;28;20039;-45
2022/03/16 00:21:00;;;;;;;37.53;19.45;;;;;;;;;;5114740;28;20045;-45
2022/03/16 00:23:26;;;;;;;56.33;22.75;;;;;;;;;;5114563;28;20028;-45
2022/03/16 00:25:52;;;;;;;36.42;17.92;;;;;;;;;;5114349;28;20062;-48
2022/03/16 00:28:19;;;;;;;30.88;16.42;;;;;;;;;;5114555;28;20027;-50
2022/03/16 00:30:45;;;;;;;35.63;18.25;;;;;;;;;;5114487;28;20027;-48
2022/03/16 00:33:11;;;;;;;39.95;20.55;;;;;;;;;;5114366;28;20023;-49
2022/03/16 00:35:37;;;;;;;39.20;21.10;;;;;;;;;;5114178;28;20144;-48
2022/03/16 00:38:03;;;;;;;35.08;19.45;;;;;;;;;;5114254;28;20032;-49
2022/03/16 00:40:30;;;;;;;34.90;18.50;;;;;;;;;;5114228;28;20019;-50
2022/03/16 00:42:56;;;;;;;38.65;20.63;;;;;;;;;;5113703;28;20038;-51
2022/03/16 00:45:22;;;;;;;50.65;26.10;;;;;;;;;;5113935;28;20071;-45
2022/03/16 00:47:48;;;;;;;44.55;23.00;;;;;;;;;;5113677;28;20048;-48
2022/03/16 00:50:14;;;;;;;42.67;23.33;;;;;;;;;;5114118;28;20023;-47
2022/03/16 00:52:40;;;;;;;43.92;23.63;;;;;;;;;;5114232;28;20031;-50
2022/03/16 00:55:06;;;;;;;43.47;22.70;;;;;;;;;;5114011;28;20103;-49
2022/03/16 00:57:32;;;;;;;40.90;22.38;;;;;;;;;;5114040;28;20482;-47
2022/03/16 00:59:58;;;;;;;37.75;22.15;;;;;;;;;;5114270;28;20031;-46
2022/03/16 01:02:25;;;;;;;43.60;21.25;;;;;;;;;;5113809;28;20460;-46
2022/03/16 01:04:51;;;;;;;34.40;20.20;;;;;;;;;;5113874;28;20051;-46
2022/03/16 01:07:17;;;;;;;38.20;21.13;;;;;;;;;;5113958;28;20023;-49
2022/03/16 01:09:43;;;;;;;43.92;23.20;;;;;;;;;;5113815;28;20051;-47
2022/03/16 01:12:09;;;;;;;39.55;19.95;;;;;;;;;;5113991;28;20028;-46
2022/03/16 01:14:36;;;;;;;40.42;21.45;;;;;;;;;;5113662;28;20036;-48
2022/03/16 01:17:02;;;;;;;35.15;19.25;;;;;;;;;;5113522;28;20100;-47
2022/03/16 01:19:31;;;;;;;31.45;18.40;;;;;;;;;;5113769;28;20079;-46
2022/03/16 01:21:57;;;;;;;30.40;18.17;;;;;;;;;;5113569;28;20064;-48
2022/03/16 01:24:26;;;;;;;40.13;19.42;;;;;;;;;;5113508;28;20023;-48
2022/03/16 01:26:52;;;;;;;36.30;17.85;;;;;;;;;;5113669;28;20506;-43
2022/03/16 01:29:18;;;;;;;30.52;16.25;;;;;;;;;;5113936;28;20055;-44
2022/03/16 01:31:44;;;;;;;31.75;17.08;;;;;;;;;;5113449;28;20016;-45
2022/03/16 01:34:12;;;;;;;35.50;17.00;;;;;;;;;;5113552;28;20020;-48
2022/03/16 01:36:40;;;;;;;42.15;20.02;;;;;;;;;;5113472;28;20043;-48
2022/03/16 01:39:06;;;;;;;38.88;19.52;;;;;;;;;;5113553;28;20050;-47
2022/03/16 01:41:32;;;;;;;31.05;17.85;;;;;;;;;;5113559;28;20058;-46
2022/03/16 01:43:59;;;;;;;33.85;17.23;;;;;;;;;;5113345;28;20080;-45
2022/03/16 01:46:25;;;;;;;33.75;17.05;;;;;;;;;;5113369;28;20555;-48
2022/03/16 01:48:53;;;;;;;32.85;16.55;;;;;;;;;;5113213;28;20067;-47
2022/03/16 01:51:20;;;;;;;29.27;16.35;;;;;;;;;;5113353;28;20019;-47
2022/03/16 01:53:48;;;;;;;27.75;16.70;;;;;;;;;;5113421;28;20055;-47
2022/03/16 01:56:18;;;;;;;30.10;17.15;;;;;;;;;;5116575;28;20060;-47
2022/03/16 01:58:46;;;;;;;32.40;17.35;;;;;;;;;;5117339;28;20449;-49
2022/03/16 02:01:14;;;;;;;31.60;16.90;;;;;;;;;;5117254;28;20023;-47
2022/03/16 02:03:41;;;;;;;28.52;15.52;;;;;;;;;;5117377;28;20084;-47
2022/03/16 02:06:08;;;;;;;29.98;17.42;;;;;;;;;;5117336;28;20024;-47
2022/03/16 02:08:36;;;;;;;30.98;17.25;;;;;;;;;;5117222;28;20027;-48
2022/03/16 02:11:02;;;;;;;29.55;15.60;;;;;;;;;;5117292;28;20024;-46
2022/03/16 02:13:28;;;;;;;29.15;15.98;;;;;;;;;;5117350;28;20020;-46
2022/03/16 02:15:54;;;;;;;36.67;19.15;;;;;;;;;;5116973;28;20015;-46
2022/03/16 02:18:20;;;;;;;33.20;18.25;;;;;;;;;;5116817;28;20031;-45
2022/03/16 02:20:50;;;;;;;27.30;15.80;;;;;;;;;;5117061;28;20123;-48
2022/03/16 02:23:16;;;;;;;33.15;17.27;;;;;;;;;;5116850;28;20020;-48
2022/03/16 02:25:53;;;;;;;32.60;17.20;;;;;;;;;;5116977;28;20027;-48
2022/03/16 02:28:20;;;;;;;31.30;17.05;;;;;;;;;;5116789;28;20024;-44
2022/03/16 02:30:47;;;;;;;34.35;17.30;;;;;;;;;;5116649;28;20015;-45
2022/03/16 02:33:13;;;;;;;36.95;18.05;;;;;;;;;;5116618;28;20600;-46
2022/03/16 02:35:39;;;;;;;31.52;17.75;;;;;;;;;;5116570;28;20380;-46
2022/03/16 02:38:06;;;;;;;27.02;16.45;;;;;;;;;;5116724;28;20055;-47
2022/03/16 02:40:32;;;;;;;35.15;16.10;;;;;;;;;;5116378;28;20023;-46
2022/03/16 02:42:58;;;;;;;33.58;15.98;;;;;;;;;;5116448;28;20109;-46
2022/03/16 02:45:24;;;;;;;30.60;15.63;;;;;;;;;;5116306;28;20098;-47
2022/03/16 02:47:50;;;;;;;36.92;18.10;;;;;;;;;;5115926;28;20127;-49
2022/03/16 02:50:17;;;;;;;30.70;15.90;;;;;;;;;;5116439;28;20146;-49
2022/03/16 02:52:44;;;;;;;31.85;16.50;;;;;;;;;;5098088;28;20031;-47
2022/03/16 02:55:10;;;;;;;26.38;13.45;;;;;;;;;;5116277;28;20425;-47
2022/03/16 02:57:37;;;;;;;29.15;14.48;;;;;;;;;;5116230;28;20035;-49
2022/03/16 03:00:05;;;;;;;23.02;14.20;;;;;;;;;;5115934;28;20118;-47
2022/03/16 03:02:31;;;;;;;27.13;15.35;;;;;;;;;;5116065;28;20026;-47
2022/03/16 03:04:57;;;;;;;32.22;14.40;;;;;;;;;;5115864;28;20475;-47
2022/03/16 03:07:23;;;;;;;27.33;14.60;;;;;;;;;;5114974;28;20055;-47
2022/03/16 03:09:49;;;;;;;29.52;15.52;;;;;;;;;;5115966;28;20368;-47
2022/03/16 03:12:15;;;;;;;43.47;20.70;;;;;;;;;;5115968;28;20024;-47
2022/03/16 03:14:41;;;;;;;54.92;26.30;;;;;;;;;;5115687;28;20459;-46
2022/03/16 03:17:07;;;;;;;37.20;19.98;;;;;;;;;;5115726;28;20114;-46
2022/03/16 03:19:34;;;;;;;39.03;20.50;;;;;;;;;;5115569;28;20042;-49
2022/03/16 03:22:00;;;;;;;28.98;15.95;;;;;;;;;;5115614;28;20023;-49
2022/03/16 03:24:28;;;;;;;25.52;15.07;;;;;;;;;;5115832;28;20076;-46
2022/03/16 03:26:54;;;;;;;27.77;14.80;;;;;;;;;;5115552;28;20074;-47
2022/03/16 03:29:20;;;;;;;25.15;15.10;;;;;;;;;;5115802;28;20024;-47
2022/03/16 03:31:46;;;;;;;25.23;14.85;;;;;;;;;;5115352;28;20529;-48
2022/03/16 03:34:13;;;;;;;27.95;15.15;;;;;;;;;;5115598;28;20023;-46
2022/03/16 03:36:39;;;;;;;25.02;14.77;;;;;;;;;;5115404;28;20020;-47
2022/03/16 03:39:05;;;;;;;28.45;14.50;;;;;;;;;;5115407;28;20063;-46
2022/03/16 03:41:31;;;;;;;29.10;15.50;;;;;;;;;;5115352;28;20024;-46
2022/03/16 03:43:57;;;;;;;24.20;14.32;;;;;;;;;;5115186;28;20020;-48
2022/03/16 03:46:24;;;;;;;28.40;15.50;;;;;;;;;;5114982;28;20020;-46
2022/03/16 03:48:50;;;;;;;29.80;15.85;;;;;;;;;;5114905;28;20044;-46
2022/03/16 03:51:16;;;;;;;24.15;15.10;;;;;;;;;;5115092;28;20046;-45
2022/03/16 03:53:42;;;;;;;29.92;15.57;;;;;;;;;;5114899;28;20028;-50
2022/03/16 03:56:08;;;;;;;29.67;17.00;;;;;;;;;;5114887;28;20100;-46
2022/03/16 03:58:35;;;;;;;28.20;15.77;;;;;;;;;;5114967;28;20031;-48
2022/03/16 04:01:03;;;;;;;33.85;18.27;;;;;;;;;;5114965;28;20016;-49
2022/03/16 04:03:32;;;;;;;39.35;21.13;;;;;;;;;;5115058;28;20106;-50
2022/03/16 04:05:59;;;;;;;38.85;21.52;;;;;;;;;;5114572;28;20016;-46
2022/03/16 04:08:25;;;;;;;39.78;21.35;;;;;;;;;;5115014;28;20033;-49
2022/03/16 04:10:52;;;;;;;51.85;25.80;;;;;;;;;;5114877;28;20031;-49
2022/03/16 04:13:18;;;;;;;45.35;23.13;;;;;;;;;;5114764;28;20020;-44
2022/03/16 04:15:44;;;;;;;39.97;19.85;;;;;;;;;;5114636;28;20047;-44
2022/03/16 04:18:10;;;;;;;29.63;17.42;;;;;;;;;;5114136;28;20027;-50
2022/03/16 04:20:36;;;;;;;31.85;17.52;;;;;;;;;;5114465;28;20036;-47
2022/03/16 04:23:02;;;;;;;30.73;17.92;;;;;;;;;;5114540;28;20435;-48
2022/03/16 04:25:28;;;;;;;27.20;17.05;;;;;;;;;;5114654;28;20059;-46
2022/03/16 04:27:54;;;;;;;28.95;16.85;;;;;;;;;;5114504;28;20468;-47
2022/03/16 04:30:20;;;;;;;38.70;17.73;;;;;;;;;;5114305;28;20096;-47
2022/03/16 04:32:51;;;;;;;33.13;16.88;;;;;;;;;;5103303;27;20035;-48
2022/03/16 04:35:17;;;;;;;29.55;16.15;;;;;;;;;;5114536;28;20059;-45
2022/03/16 04:37:43;;;;;;;36.75;17.98;;;;;;;;;;5114301;28;20483;-45
2022/03/16 04:40:10;;;;;;;33.80;17.50;;;;;;;;;;5114315;28;20036;-47
2022/03/16 04:42:36;;;;;;;36.30;17.83;;;;;;;;;;5114386;28;20023;-47
2022/03/16 04:45:02;;;;;;;34.72;17.27;;;;;;;;;;5114183;28;20028;-44
2022/03/16 04:47:30;;;;;;;27.48;16.30;;;;;;;;;;5114060;28;20028;-46
2022/03/16 04:49:56;;;;;;;32.33;17.98;;;;;;;;;;5114098;28;20515;-46
2022/03/16 04:52:25;;;;;;;34.70;18.80;;;;;;;;;;5114049;28;20023;-47
2022/03/16 04:54:51;;;;;;;41.33;21.98;;;;;;;;;;5114207;28;20379;-46
2022/03/16 04:57:23;;;;;;;75.72;33.42;;;;;;;;;;5114058;28;20118;-47
2022/03/16 04:59:49;;;;;;;56.25;24.83;;;;;;;;;;5113966;28;20039;-45
2022/03/16 05:02:16;;;;;;;61.17;34.08;;;;;;;;;;5114134;28;20023;-45
2022/03/16 05:04:42;;;;;;;53.63;24.42;;;;;;;;;;5114052;28;20124;-46
2022/03/16 05:07:08;;;;;;;52.78;25.65;;;;;;;;;;5113933;28;20047;-46
2022/03/16 05:09:34;;;;;;;52.85;24.88;;;;;;;;;;5114075;28;20019;-45
2022/03/16 05:12:00;;;;;;;40.03;20.83;;;;;;;;;;5113817;28;20034;-48
2022/03/16 05:14:26;;;;;;;47.83;20.83;;;;;;;;;;5113524;28;20065;-44
2022/03/16 05:16:53;;;;;;;38.28;18.92;;;;;;;;;;5113936;28;20032;-50
2022/03/16 05:19:23;;;;;;;32.80;18.80;;;;;;;;;;5113654;28;20055;-44
2022/03/16 05:21:49;;;;;;;39.35;18.15;;;;;;;;;;5113630;28;20030;-46
2022/03/16 05:24:15;;;;;;;41.10;20.25;;;;;;;;;;5113819;28;20514;-43
2022/03/16 05:26:41;;;;;;;41.55;18.30;;;;;;;;;;5113714;28;20020;-44
2022/03/16 05:29:08;;;;;;;32.65;17.88;;;;;;;;;;5113678;28;20079;-49
2022/03/16 05:31:36;;;;;;;32.53;17.35;;;;;;;;;;5117495;28;20024;-49
2022/03/16 05:34:02;;;;;;;37.28;18.50;;;;;;;;;;5118004;28;20038;-49
2022/03/16 05:36:29;;;;;;;36.17;18.52;;;;;;;;;;5117759;28;20460;-46
2022/03/16 05:38:55;;;;;;;36.58;18.17;;;;;;;;;;5117751;28;20059;-47
2022/03/16 05:41:21;;;;;;;42.60;19.38;;;;;;;;;;5117838;28;20031;-45
2022/03/16 05:43:47;;;;;;;37.00;19.80;;;;;;;;;;5117965;28;20027;-45
2022/03/16 05:46:15;;;;;;;44.03;18.70;;;;;;;;;;5117845;28;20048;-45
2022/03/16 05:48:41;;;;;;;42.00;20.75;;;;;;;;;;5117545;28;20043;-47
2022/03/16 05:51:11;;;;;;;38.33;19.10;;;;;;;;;;5117799;28;20518;-47
2022/03/16 05:53:39;;;;;;;43.25;21.25;;;;;;;;;;5117674;28;20034;-46
2022/03/16 05:56:05;;;;;;;39.08;20.60;;;;;;;;;;5117701;28;20030;-47
2022/03/16 05:58:31;;;;;;;45.80;21.67;;;;;;;;;;5117310;28;20032;-46
2022/03/16 06:00:58;;;;;;;44.53;21.25;;;;;;;;;;5117663;28;20028;-46
2022/03/16 06:03:24;;;;;;;41.20;20.23;;;;;;;;;;5117399;28;20023;-45
2022/03/16 06:05:50;;;;;;;39.38;21.35;;;;;;;;;;5117569;28;20051;-45
2022/03/16 06:08:20;;;;;;;43.55;21.50;;;;;;;;;;5117404;28;20074;-45
2022/03/16 06:10:46;;;;;;;50.25;23.48;;;;;;;;;;5117297;28;20376;-45
2022/03/16 06:13:12;;;;;;;35.67;20.50;;;;;;;;;;5117430;28;20016;-44
2022/03/16 06:15:40;;;;;;;42.83;19.63;;;;;;;;;;5117007;28;20028;-44
2022/03/16 06:18:07;;;;;;;32.90;19.67;;;;;;;;;;5117379;28;20103;-44
2022/03/16 06:20:33;;;;;;;41.15;22.23;;;;;;;;;;5116870;28;20045;-44
2022/03/16 06:23:04;;;;;;;47.20;22.05;;;;;;;;;;5116979;28;20094;-44
2022/03/16 06:25:31;;;;;;;45.43;21.13;;;;;;;;;;5098790;28;20444;-46
2022/03/16 06:27:57;;;;;;;38.20;20.27;;;;;;;;;;5116855;28;20479;-45
2022/03/16 06:30:23;;;;;;;43.97;20.98;;;;;;;;;;5117041;28;20027;-44
2022/03/16 06:32:49;;;;;;;36.25;19.58;;;;;;;;;;5116716;28;20019;-45
2022/03/16 06:35:16;;;;;;;40.20;19.10;;;;;;;;;;5116776;28;20380;-45
2022/03/16 06:37:43;;;;;;;35.70;18.42;;;;;;;;;;5116861;28;20031;-44
2022/03/16 06:40:09;;;;;;;43.45;19.63;;;;;;;;;;5116667;28;20032;-44
2022/03/16 06:42:35;;;;;;;39.60;18.63;;;;;;;;;;5116935;28;20094;-44
2022/03/16 06:45:01;;;;;;;44.15;18.38;;;;;;;;;;5116333;28;20035;-44
2022/03/16 06:47:27;;;;;;;38.05;19.10;;;;;;;;;;5116586;28;20047;-45
2022/03/16 06:49:53;;;;;;;36.22;17.75;;;;;;;;;;5116588;28;20034;-44
2022/03/16 06:52:19;;;;;;;32.47;17.88;;;;;;;;;;5116527;28;20443;-45
2022/03/16 06:54:45;;;;;;;38.72;19.40;;;;;;;;;;5116493;28;20019;-47
2022/03/16 06:57:12;;;;;;;35.60;18.33;;;;;;;;;;5116391;28;20050;-45
2022/03/16 06:59:38;;;;;;;30.98;17.35;;;;;;;;;;5116168;28;20035;-46
2022/03/16 07:02:04;;;;;;;36.60;20.83;;;;;;;;;;5116180;28;20077;-47
2022/03/16 07:04:30;;;;;;;31.85;18.70;;;;;;;;;;5116099;28;20471;-46
2022/03/16 07:06:56;;;;;;;30.90;17.13;;;;;;;;;;5116084;28;20027;-44
2022/03/16 07:09:22;;;;;;;29.52;16.83;;;;;;;;;;5116002;28;20050;-47
2022/03/16 07:11:48;;;;;;;30.60;16.20;;;;;;;;;;5115661;28;20388;-44
2022/03/16 07:14:32;;;;;;;31.67;16.73;;;;;;;;;;5115957;28;20044;-44
2022/03/16 07:16:59;;;;;;;32.03;17.15;;;;;;;;;;5116158;28;20027;-45
2022/03/16 07:19:26;;;;;;;30.70;15.98;;;;;;;;;;5115929;28;20036;-43
2022/03/16 07:21:52;;;;;;;33.97;15.90;;;;;;;;;;5115739;28;20471;-46
2022/03/16 07:24:20;;;;;;;31.25;15.65;;;;;;;;;;5116037;28;20028;-47
2022/03/16 07:26:49;;;;;;;30.40;16.08;;;;;;;;;;5115719;28;20020;-45
2022/03/16 07:29:15;;;;;;;33.58;15.57;;;;;;;;;;5115742;28;20064;-46
2022/03/16 07:31:41;;;;;;;28.77;15.00;;;;;;;;;;5115759;28;20118;-46
2022/03/16 07:34:07;;;;;;;25.10;13.18;;;;;;;;;;5115628;28;20032;-45
2022/03/16 07:36:34;;;;;;;23.15;12.48;;;;;;;;;;5097395;28;20088;-45
2022/03/16 07:39:00;;;;;;;23.27;13.55;;;;;;;;;;5115184;28;20111;-46
2022/03/16 07:41:26;;;;;;;30.38;16.88;;;;;;;;;;5115092;28;20058;-47
2022/03/16 07:43:52;;;;;;;25.65;13.10;;;;;;;;;;5115278;28;20073;-46
2022/03/16 07:46:18;;;;;;;26.45;14.25;;;;;;;;;;5115271;28;20020;-44
2022/03/16 07:48:45;;;;;;;17.23;10.65;;;;;;;;;;5096851;28;20433;-46
2022/03/16 07:51:12;;;;;;;23.00;9.55;;;;;;;;;;5115306;28;20032;-46
2022/03/16 07:53:38;;;;;;;14.80;9.23;;;;;;;;;;5114682;28;20023;-44
2022/03/16 07:56:05;;;;;;;14.80;8.77;;;;;;;;;;5115749;28;20015;-44
2022/03/16 07:58:31;;;;;;;14.23;8.30;;;;;;;;;;5114921;28;20054;-44
2022/03/16 08:00:57;;;;;;;14.80;8.40;;;;;;;;;;5115236;28;20035;-45
2022/03/16 08:03:26;;;;;;;14.30;7.75;;;;;;;;;;5114931;28;20471;-44
2022/03/16 08:05:52;;;;;;;18.67;8.13;;;;;;;;;;5115241;28;20035;-46
2022/03/16 08:08:18;;;;;;;13.55;7.90;;;;;;;;;;5114961;28;20098;-44
2022/03/16 08:10:44;;;;;;;15.40;8.25;;;;;;;;;;5114884;28;20019;-46
2022/03/16 08:13:10;;;;;;;17.83;6.78;;;;;;;;;;5096195;28;20570;-45
2022/03/16 08:15:36;;;;;;;13.65;6.75;;;;;;;;;;5114726;28;20019;-46
2022/03/16 08:18:03;;;;;;;14.98;8.07;;;;;;;;;;5114883;28;20115;-47
2022/03/16 08:20:29;;;;;;;18.80;9.18;;;;;;;;;;5114778;28;20039;-44
2022/03/16 08:22:57;;;;;;;16.25;7.55;;;;;;;;;;5114708;28;20024;-44
2022/03/16 08:25:23;;;;;;;13.88;6.45;;;;;;;;;;5114439;28;20510;-44
2022/03/16 08:27:50;;;;;;;13.70;7.30;;;;;;;;;;5114410;28;20050;-46
2022/03/16 08:30:16;;;;;;;11.05;6.70;;;;;;;;;;5114533;28;20020;-45
2022/03/16 08:32:42;;;;;;;14.20;7.15;;;;;;;;;;5114763;28;20024;-46
2022/03/16 08:35:09;;;;;;;15.48;9.25;;;;;;;;;;5095952;28;20028;-45
2022/03/16 08:37:36;;;;;;;16.00;7.97;;;;;;;;;;5114275;28;20031;-45
2022/03/16 08:40:03;;;;;;;13.55;7.10;;;;;;;;;;5114388;28;20039;-45
2022/03/16 08:42:29;;;;;;;10.10;6.65;;;;;;;;;;5114358;28;20416;-46
2022/03/16 08:44:55;;;;;;;8.43;5.85;;;;;;;;;;5114470;28;20030;-45
2022/03/16 08:47:23;;;;;;;12.43;6.63;;;;;;;;;;5114429;28;20019;-45
2022/03/16 08:49:51;;;;;;;9.13;6.28;;;;;;;;;;5114338;28;20418;-47
2022/03/16 08:52:17;;;;;;;11.70;6.93;;;;;;;;;;5114240;28;20468;-46
2022/03/16 08:54:44;;;;;;;10.55;6.72;;;;;;;;;;5095523;28;20398;-46
2022/03/16 08:57:11;;;;;;;11.35;6.85;;;;;;;;;;5114009;28;20020;-46
2022/03/16 08:59:37;;;;;;;13.05;8.15;;;;;;;;;;5095616;28;20063;-47
2022/03/16 09:02:04;;;;;;;14.32;8.57;;;;;;;;;;5113963;28;20020;-47
2022/03/16 09:04:31;;;;;;;13.85;9.00;;;;;;;;;;5113513;28;20492;-46
2022/03/16 09:06:58;;;;;;;18.33;10.50;;;;;;;;;;5113923;28;20503;-46
2022/03/16 09:09:25;;;;;;;14.75;9.15;;;;;;;;;;5114156;28;20047;-46
2022/03/16 09:11:51;;;;;;;18.85;8.98;;;;;;;;;;5113879;28;20390;-46
2022/03/16 09:14:17;;;;;;;20.67;8.98;;;;;;;;;;5113936;28;20474;-46
2022/03/16 09:16:45;;;;;;;15.10;8.98;;;;;;;;;;5114031;28;20114;-44
2022/03/16 09:19:16;;;;;;;14.25;9.27;;;;;;;;;;5113831;28;20387;-44
2022/03/16 09:21:46;;;;;;;16.30;8.95;;;;;;;;;;5113797;28;20463;-46
2022/03/16 09:24:12;;;;;;;15.18;9.57;;;;;;;;;;5114023;28;20098;-47
2022/03/16 09:26:39;;;;;;;14.30;8.98;;;;;;;;;;5113757;28;20024;-46
2022/03/16 09:29:08;;;;;;;16.55;9.60;;;;;;;;;;5114049;28;20035;-46
2022/03/16 09:31:34;;;;;;;20.00;10.38;;;;;;;;;;5113842;28;20027;-44
2022/03/16 09:34:00;;;;;;;17.58;10.50;;;;;;;;;;5113873;28;20028;-45
2022/03/16 09:36:27;;;;;;;19.55;10.60;;;;;;;;;;5095928;28;20423;-45
2022/03/16 09:38:55;;;;;;;17.52;10.00;;;;;;;;;;5113605;28;20383;-44
2022/03/16 09:41:21;;;;;;;18.50;9.90;;;;;;;;;;5113605;28;20084;-46
2022/03/16 09:43:49;;;;;;;22.80;10.45;;;;;;;;;;5113659;28;20024;-46
2022/03/16 09:46:20;;;;;;;21.27;10.68;;;;;;;;;;5113589;28;20023;-46
2022/03/16 09:48:46;;;;;;;17.52;9.73;;;;;;;;;;5113479;28;20479;-45
2022/03/16 09:51:12;;;;;;;17.67;10.30;;;;;;;;;;5113572;28;20496;-46
2022/03/16 09:53:38;;;;;;;14.80;9.23;;;;;;;;;;5113564;28;20028;-45
2022/03/16 09:56:05;;;;;;;17.38;10.65;;;;;;;;;;5113356;28;20020;-47
2022/03/16 09:58:31;;;;;;;15.10;9.40;;;;;;;;;;5113613;28;20020;-46
2022/03/16 10:00:58;;;;;;;15.38;9.43;;;;;;;;;;5113945;28;20028;-47
2022/03/16 10:03:31;;;;;;;19.65;10.90;;;;;;;;;;5094827;28;20028;-46
2022/03/16 10:05:57;;;;;;;18.83;10.40;;;;;;;;;;5113645;28;20119;-47
2022/03/16 10:08:26;;;;;;;17.02;9.85;;;;;;;;;;5113276;28;20020;-44
2022/03/16 10:13:48;;;;;;;22.05;11.63;;;;;;;;;;5113756;28;20085;-45
2022/03/16 10:16:14;;;;;;;20.88;11.50;;;;;;;;;;5114639;28;20020;-46
2022/03/16 10:18:40;;;;;;;19.48;11.73;;;;;;;;;;5117085;28;20054;-45
2022/03/16 10:21:06;;;;;;;17.48;10.88;;;;;;;;;;5117192;28;20036;-46
2022/03/16 10:23:32;;;;;;;22.00;11.82;;;;;;;;;;5116830;28;20156;-45
2022/03/16 10:25:59;;;;;;;19.20;10.77;;;;;;;;;;5117377;28;20110;-46
2022/03/16 10:28:26;;;;;;;17.70;11.57;;;;;;;;;;5117095;28;20087;-45
2022/03/16 10:30:55;;;;;;;19.33;11.40;;;;;;;;;;5116941;28;20023;-46
2022/03/16 10:33:22;;;;;;;19.27;11.43;;;;;;;;;;5116876;28;20034;-45
2022/03/16 10:35:55;;;;;;;19.23;11.88;;;;;;;;;;5116760;28;20463;-47
2022/03/16 10:38:22;;;;;;;17.80;11.45;;;;;;;;;;5116999;28;20015;-47
2022/03/16 10:40:49;;;;;;;19.05;11.45;;;;;;;;;;5116696;28;20369;-46
2022/03/16 10:49:00;;;;;;;21.13;12.40;;;;;;;;;;5116410;28;20055;-45
2022/03/16 10:51:26;;;;;;;21.15;12.63;;;;;;;;;;5116315;28;20468;-45
2022/03/16 10:53:53;;;;;;;20.75;13.00;;;;;;;;;;5116392;28;20024;-46
2022/03/16 10:56:20;;;;;;;20.60;12.80;;;;;;;;;;5116520;28;20028;-46
2022/03/16 10:58:46;;;;;;;21.00;12.10;;;;;;;;;;5116418;28;20031;-48
2022/03/16 11:01:13;;;;;;;19.17;11.57;;;;;;;;;;5116161;28;20035;-44
2022/03/16 11:03:41;;;;;;;20.70;11.93;;;;;;;;;;5116430;28;20068;-44
2022/03/16 11:06:08;;;;;;;19.45;10.50;;;;;;;;;;5116329;28;20034;-44
2022/03/16 11:08:37;;;;;;;18.10;11.10;;;;;;;;;;5116249;28;20383;-45
2022/03/16 11:13:28;;;;;;;18.42;11.30;;;;;;;;;;5116182;28;20026;-45
2022/03/16 11:13:53;;;;;;;25.00;12.40;;;;;;;;;;5115848;28;20036;-46
2022/03/16 11:16:20;;;;;;;21.65;11.68;;;;;;;;;;5116110;28;20383;-46
2022/03/16 11:18:51;;;;;;;23.23;12.23;;;;;;;;;;5115879;28;20027;-45
2022/03/16 11:21:21;;;;;;;23.90;12.07;;;;;;;;;;5116226;28;20034;-45
2022/03/16 11:26:35;;;;;;;25.88;14.05;;;;;;;;;;5115961;28;20119;-45
2022/03/16 11:29:02;;;;;;;24.20;12.98;;;;;;;;;;5114886;28;20083;-45
2022/03/16 11:31:31;;;;;;;22.25;13.13;;;;;;;;;;5115666;28;20020;-45
2022/03/16 11:33:59;;;;;;;26.02;13.95;;;;;;;;;;5115699;28;20080;-45
2022/03/16 11:36:40;;;;;;;25.05;14.10;;;;;;;;;;5115617;28;20059;-44
2022/03/16 11:39:20;;;;;;;23.50;14.02;;;;;;;;;;5115426;28;20179;-45
2022/03/16 11:41:53;;;;;;;23.02;13.00;;;;;;;;;;5115429;28;20371;-45
2022/03/16 11:44:25;;;;;;;22.95;13.73;;;;;;;;;;5115636;28;20171;-45
2022/03/16 11:46:54;;;;;;;23.48;14.45;;;;;;;;;;5115321;28;20019;-45
2022/03/16 11:49:29;;;;;;;22.40;14.45;;;;;;;;;;5115158;28;20051;-47
2022/03/16 11:52:02;;;;;;;23.67;13.25;;;;;;;;;;5115515;28;20019;-47
2022/03/16 11:54:48;;;;;;;20.67;12.20;;;;;;;;;;5115406;28;20023;-47
2022/03/16 11:57:15;;;;;;;24.35;12.88;;;;;;;;;;5115252;28;20019;-46
2022/03/16 11:59:44;;;;;;;24.73;13.60;;;;;;;;;;5115246;28;20082;-46
2022/03/16 12:02:22;;;;;;;23.60;12.98;;;;;;;;;;5115079;28;20016;-46
2022/03/16 12:04:49;;;;;;;24.90;13.10;;;;;;;;;;5115124;28;20020;-45
2022/03/16 12:07:17;;;;;;;21.80;13.07;;;;;;;;;;5115246;28;20019;-47
2022/03/16 12:09:55;;;;;;;24.38;14.27;;;;;;;;;;5115076;28;20023;-47
2022/03/16 12:15:12;;;;;;;26.77;14.90;;;;;;;;;;5114954;28;20039;-46
2022/03/16 12:17:56;;;;;;;25.02;14.35;;;;;;;;;;5114742;28;20382;-47
2022/03/16 12:20:26;;;;;;;22.65;13.57;;;;;;;;;;5114838;28;20036;-47
2022/03/16 12:22:55;;;;;;;23.73;13.85;;;;;;;;;;5114505;28;20383;-46
2022/03/16 12:25:31;;;;;;;27.10;14.55;;;;;;;;;;5114213;28;20036;-47
2022/03/16 12:30:47;;;;;;;;;;;;;;;;;;5114981;28;20034;-44
2022/03/16 12:33:19;;;;;;;24.88;14.13;;;;;;;;;;5114424;28;20275;-47
2022/03/16 12:35:48;;;;;;;24.65;14.65;;;;;;;;;;5114240;28;20034;-47
2022/03/16 12:38:14;;;;;;;25.60;15.07;;;;;;;;;;5114542;28;20019;-45
2022/03/16 12:43:30;;;;;;;24.92;15.68;;;;;;;;;;5114422;28;20368;-45
2022/03/16 12:46:16;;;;;;;30.88;16.13;;;;;;;;;;5114076;28;20020;-44
2022/03/16 12:48:48;;;;;;;29.17;16.52;;;;;;;;;;5011551;28;20449;-44
2022/03/16 12:51:18;;;;;;;29.35;16.58;;;;;;;;;;5011841;28;20061;-45
2022/03/16 12:53:44;;;;;;;31.92;15.95;;;;;;;;;;5011850;28;20033;-46
2022/03/16 12:56:19;;;;;;;22.98;13.52;;;;;;;;;;5011760;28;20113;-46
2022/03/16 12:58:52;;;;;;;23.42;14.00;;;;;;;;;;5011720;28;20025;-46
2022/03/16 13:01:21;;;;;;;20.42;12.70;;;;;;;;;;5011737;28;20044;-45
2022/03/16 13:03:50;;;;;;;20.33;12.68;;;;;;;;;;5011898;28;20036;-44
2022/03/16 13:06:17;;;;;;;18.08;10.73;;;;;;;;;;5011617;28;20041;-44
2022/03/16 13:08:50;;;;;;;20.80;12.13;;;;;;;;;;5011633;28;20036;-44
2022/03/16 13:11:28;;;;;;;19.65;11.85;;;;;;;;;;5011802;28;20026;-44
2022/03/16 13:14:03;;;;;;;29.48;14.90;;;;;;;;;;5011869;28;20593;-45
2022/03/16 13:16:30;;;;;;;24.90;14.32;;;;;;;;;;5011283;28;20557;-44
2022/03/16 13:18:56;;;;;;;29.33;13.88;;;;;;;;;;5011304;28;20045;-45
2022/03/16 13:21:24;;;;;;;25.70;13.88;;;;;;;;;;5011719;28;20113;-45
2022/03/16 13:24:00;;;;;;;26.95;14.32;;;;;;;;;;5011382;28;20033;-45
2022/03/16 13:26:27;;;;;;;23.10;14.45;;;;;;;;;;5070204;28;20039;-45
2022/03/16 13:28:54;;;;;;;25.55;14.18;;;;;;;;;;5095290;28;20059;-45
2022/03/16 13:31:27;;;;;;;26.58;14.52;;;;;;;;;;5113711;28;20023;-45
2022/03/16 13:33:53;;;;;;;24.23;14.07;;;;;;;;;;5113724;28;20102;-45
2022/03/16 13:36:31;;;;;;;25.83;14.05;;;;;;;;;;5113655;28;20081;-45
2022/03/16 13:38:58;;;;;;;22.75;13.48;;;;;;;;;;5113536;28;20043;-45
2022/03/16 13:41:24;;;;;;;32.33;17.40;;;;;;;;;;5113660;28;20388;-45
2022/03/16 13:44:01;;;;;;;26.02;14.57;;;;;;;;;;5113694;28;20016;-46
2022/03/16 13:46:37;;;;;;;27.38;13.40;;;;;;;;;;5113617;28;20028;-46
2022/03/16 13:49:09;;;;;;;26.48;14.38;;;;;;;;;;5113417;28;20048;-46
2022/03/16 13:51:35;;;;;;;28.50;15.35;;;;;;;;;;5115427;28;20024;-46
2022/03/16 13:54:03;;;;;;;24.55;13.85;;;;;;;;;;5117514;28;20023;-46
2022/03/16 13:56:29;;;;;;;28.55;15.63;;;;;;;;;;5117580;28;20032;-47
2022/03/16 13:58:55;;;;;;;30.52;16.20;;;;;;;;;;5117624;28;20387;-46
2022/03/16 14:01:22;;;;;;;26.70;14.85;;;;;;;;;;5117537;28;20036;-45
2022/03/16 14:03:48;;;;;;;20.45;11.75;;;;;;;;;;5117517;28;20020;-46
2022/03/16 14:06:15;;;;;;;24.98;11.55;;;;;;;;;;5117156;28;20034;-48
2022/03/16 14:08:41;;;;;;;21.08;11.07;;;;;;;;;;5117258;28;20024;-45
2022/03/16 14:11:08;;;;;;;15.88;8.52;;;;;;;;;;5117279;28;20368;-46
2022/03/16 14:13:44;;;;;;;13.38;8.77;;;;;;;;;;5117053;28;20035;-46
2022/03/16 14:16:14;;;;;;;17.90;8.60;;;;;;;;;;5117241;28;20047;-46
2022/03/16 14:18:41;;;;;;;12.52;7.90;;;;;;;;;;5116973;28;20028;-46
2022/03/16 14:21:08;;;;;;;11.77;7.45;;;;;;;;;;5116989;28;20088;-46
2022/03/16 14:23:37;;;;;;;13.60;7.30;;;;;;;;;;5117087;28;20110;-44
2022/03/16 14:26:04;;;;;;;12.05;7.05;;;;;;;;;;5117094;28;20023;-45
2022/03/16 14:28:31;;;;;;;16.42;8.63;;;;;;;;;;5116847;28;20026;-45
2022/03/16 14:30:58;;;;;;;18.83;8.25;;;;;;;;;;5116853;28;20032;-47
2022/03/16 14:33:26;;;;;;;14.45;8.05;;;;;;;;;;5116672;28;20387;-46
2022/03/16 14:35:56;;;;;;;16.80;7.30;;;;;;;;;;5116436;28;20023;-45
2022/03/16 14:38:22;;;;;;;18.08;8.18;;;;;;;;;;5113852;28;20106;-43
2022/03/16 14:40:54;;;;;;;22.67;8.90;;;;;;;;;;5108497;28;20035;-46